Time;durP1;ratioP1;P1;durP2;ratioP2;P2;SDS_P1;SDS_P2;PMS_P1;PMS_P2;Temp;Humidity;BMP_temperature;BMP_pressure;BME280_temperature;BME280_humidity;BME280_pressure;Samples;Min_cycle;Max_cycle;Signal;HPM_P1;HPM_P2
2023/12/18 00:01:39;;;;;;;9.50;6.13;;;;;;;5.84;85.36;100420.31;5033110;28;20025;-69
2023/12/18 00:04:06;;;;;;;10.88;6.55;;;;;;;5.86;86.08;100423.66;5049143;28;20136;-70
2023/12/18 00:06:31;;;;;;;10.13;5.95;;;;;;;5.78;87.47;100406.78;5033203;28;20089;-69
2023/12/18 00:08:56;;;;;;;13.38;7.35;;;;;;;5.92;87.84;100428.56;5034196;28;20107;-69
2023/12/18 00:11:27;;;;;;;10.38;6.30;;;;;;;5.59;88.51;100373.22;5049787;28;20024;-70
2023/12/18 00:13:52;;;;;;;9.85;6.55;;;;;;;5.88;87.88;100420.13;5027869;28;20230;-70
2023/12/18 00:16:19;;;;;;;9.75;6.93;;;;;;;5.88;88.12;100416.69;5049182;28;20119;-69
2023/12/18 00:18:48;;;;;;;11.73;6.82;;;;;;;5.79;89.58;100412.78;5045351;28;20055;-69
2023/12/18 00:21:15;;;;;;;9.73;6.75;;;;;;;5.77;90.81;100410.28;5053065;28;20447;-69
2023/12/18 00:23:41;;;;;;;11.75;7.10;;;;;;;5.79;90.96;100397.31;5045725;28;20104;-69
2023/12/18 00:26:07;;;;;;;10.82;7.18;;;;;;;5.63;90.61;100355.88;5047841;28;20090;-70
2023/12/18 00:28:32;;;;;;;11.77;7.25;;;;;;;5.99;90.61;100411.91;5048165;28;20031;-69
2023/12/18 00:30:57;;;;;;;10.40;6.90;;;;;;;5.86;90.84;100398.69;5038510;28;20050;-69
2023/12/18 00:33:26;;;;;;;12.27;7.30;;;;;;;5.81;90.87;100399.81;5031821;28;20036;-70
2023/12/18 00:35:53;;;;;;;10.05;6.55;;;;;;;5.62;91.55;100387.72;5030464;28;20052;-68
2023/12/18 00:38:19;;;;;;;11.20;7.32;;;;;;;5.44;91.74;100361.03;5033876;28;20059;-69
2023/12/18 00:40:46;;;;;;;11.55;6.97;;;;;;;5.69;91.47;100401.19;5043498;28;20202;-70
2023/12/18 00:43:15;;;;;;;10.85;6.93;;;;;;;5.19;91.84;100320.03;5034077;28;20061;-69
2023/12/18 00:45:42;;;;;;;10.50;6.72;;;;;;;5.76;91.15;100400.00;5048843;28;20136;-68
2023/12/18 00:48:08;;;;;;;11.18;6.65;;;;;;;5.78;90.89;100400.78;5050075;28;20095;-68
2023/12/18 00:50:33;;;;;;;11.20;6.70;;;;;;;5.76;90.20;100395.69;5033411;28;20754;-67
2023/12/18 00:52:58;;;;;;;11.00;7.15;;;;;;;5.76;89.53;100395.69;5047229;28;20070;-68
2023/12/18 00:55:24;;;;;;;11.40;6.35;;;;;;;5.78;89.80;100404.19;5052310;28;20048;-68
2023/12/18 00:57:51;;;;;;;11.25;6.53;;;;;;;5.81;89.50;100400.66;5044479;28;20111;-70
2023/12/18 01:00:19;;;;;;;8.98;6.15;;;;;;;5.83;88.95;100401.41;5032005;28;20805;-69
2023/12/18 01:02:46;;;;;;;8.85;6.10;;;;;;;5.86;88.30;100397.84;5025920;28;20098;-69
2023/12/18 01:05:15;;;;;;;9.80;6.00;;;;;;;5.89;88.27;100395.13;5051040;28;20035;-69
2023/12/18 01:07:41;;;;;;;10.80;6.50;;;;;;;5.73;88.46;100371.75;5026243;28;20723;-69
2023/12/18 01:10:07;;;;;;;9.55;6.35;;;;;;;5.83;88.15;100396.25;5051546;28;20101;-68
2023/12/18 01:12:32;;;;;;;10.48;6.22;;;;;;;5.81;87.68;100382.56;5047288;28;20533;-69
2023/12/18 01:15:00;;;;;;;9.30;6.18;;;;;;;5.62;88.48;100350.78;5031168;28;20075;-69
2023/12/18 01:17:28;;;;;;;9.43;6.32;;;;;;;5.85;89.73;100399.59;5034284;28;20067;-69
2023/12/18 01:19:53;;;;;;;9.27;6.07;;;;;;;5.84;90.02;100404.81;5044601;28;20639;-69
2023/12/18 01:22:18;;;;;;;9.82;6.28;;;;;;;5.76;90.19;100390.53;5037026;28;20024;-68
2023/12/18 01:24:44;;;;;;;10.27;6.07;;;;;;;5.73;89.14;100393.25;5048881;28;20141;-69
2023/12/18 01:27:09;;;;;;;8.60;5.45;;;;;;;5.39;87.14;100343.16;5036431;28;20036;-69
2023/12/18 01:29:41;;;;;;;10.38;5.53;;;;;;;5.72;87.58;100391.56;5045845;28;20377;-69
2023/12/18 01:32:08;;;;;;;8.10;5.13;;;;;;;5.56;87.75;100394.00;5033960;28;20029;-69
2023/12/18 01:34:34;;;;;;;8.48;5.50;;;;;;;5.62;88.58;100398.06;5032302;28;20021;-68
2023/12/18 01:36:59;;;;;;;9.30;5.75;;;;;;;5.54;89.30;100390.66;5028657;28;20371;-69
2023/12/18 01:39:24;;;;;;;9.32;5.63;;;;;;;5.56;89.39;100378.53;5049056;28;20033;-69
2023/12/18 01:41:50;;;;;;;8.90;5.13;;;;;;;5.64;88.85;100377.34;5041737;28;20122;-69
2023/12/18 01:44:15;;;;;;;9.15;5.28;;;;;;;5.61;88.87;100386.06;5045855;28;20043;-69
2023/12/18 01:46:41;;;;;;;8.93;5.38;;;;;;;5.32;87.39;100338.38;5031551;28;20025;-69
2023/12/18 01:49:07;;;;;;;9.40;5.45;;;;;;;5.60;88.01;100381.81;5035157;28;20035;-69
2023/12/18 01:51:32;;;;;;;9.52;5.38;;;;;;;5.69;87.78;100381.38;5047623;28;20029;-69
2023/12/18 01:54:01;;;;;;;8.25;5.28;;;;;;;5.71;87.83;100381.31;5043366;28;20122;-70
2023/12/18 01:56:30;;;;;;;9.38;5.63;;;;;;;5.56;88.05;100346.72;5033425;28;20021;-69
2023/12/18 01:58:59;;;;;;;7.35;4.57;;;;;;;5.37;88.20;100320.94;5040349;28;20683;-68
2023/12/18 02:01:25;;;;;;;8.85;5.60;;;;;;;5.71;87.49;100363.25;5047129;28;20018;-68
2023/12/18 02:03:51;;;;;;;9.77;5.68;;;;;;;5.69;89.04;100363.31;5042407;28;20144;-68
2023/12/18 02:06:17;;;;;;;8.02;5.07;;;;;;;5.74;89.79;100366.53;5026921;28;20032;-69
2023/12/18 02:08:46;;;;;;;8.25;4.97;;;;;;;5.84;89.71;100368.69;5043726;28;20059;-68
2023/12/18 02:11:13;;;;;;;7.60;5.03;;;;;;;5.88;88.83;100363.31;5044010;28;20024;-68
2023/12/18 02:13:40;;;;;;;8.50;5.05;;;;;;;5.90;88.87;100352.91;5042306;28;20024;-68
2023/12/18 02:16:06;;;;;;;8.23;5.53;;;;;;;5.95;89.54;100353.50;5051794;28;20041;-68
2023/12/18 02:18:34;;;;;;;9.57;5.30;;;;;;;5.78;89.69;100347.41;5045610;28;20044;-69
2023/12/18 02:20:59;;;;;;;8.60;5.05;;;;;;;5.80;88.06;100354.25;5040917;28;20117;-69
2023/12/18 02:23:27;;;;;;;8.18;4.63;;;;;;;5.35;87.61;100274.56;5040564;28;20028;-69
2023/12/18 02:25:52;;;;;;;7.30;4.30;;;;;;;5.50;88.15;100300.56;5045879;28;20496;-69
2023/12/18 02:28:18;;;;;;;9.10;5.40;;;;;;;5.51;91.63;100300.50;5045869;28;20059;-69
2023/12/18 02:30:43;;;;;;;8.52;5.55;;;;;;;5.85;91.85;100331.63;5043391;28;20039;-69
2023/12/18 02:33:09;;;;;;;9.43;5.05;;;;;;;5.65;91.08;100278.38;5034057;28;20526;-68
2023/12/18 02:35:37;;;;;;;8.13;5.00;;;;;;;5.85;90.70;100323.91;5040123;28;20032;-69
2023/12/18 02:38:02;;;;;;;9.43;4.80;;;;;;;5.55;91.18;100281.38;5033379;28;20035;-69
2023/12/18 02:40:27;;;;;;;7.40;4.53;;;;;;;5.88;90.65;100326.34;5048629;28;20028;-69
2023/12/18 02:42:53;;;;;;;7.50;4.65;;;;;;;5.77;89.19;100319.94;5041961;28;20548;-69
2023/12/18 02:45:21;;;;;;;7.53;4.40;;;;;;;5.68;87.11;100312.63;5043588;28;20025;-69
2023/12/18 02:47:48;;;;;;;8.32;4.38;;;;;;;5.68;86.25;100322.94;5043429;28;20191;-69
2023/12/18 02:50:14;;;;;;;9.15;4.88;;;;;;;5.71;86.47;100325.38;5049837;28;20047;-68
2023/12/18 02:52:40;;;;;;;8.98;5.25;;;;;;;5.68;86.70;100322.13;5040805;28;20479;-69
2023/12/18 02:55:11;;;;;;;7.63;4.68;;;;;;;5.67;87.11;100329.00;5042854;28;20057;-68
2023/12/18 02:57:36;;;;;;;8.02;4.80;;;;;;;5.82;87.18;100324.03;5041177;28;20034;-68
2023/12/18 03:00:03;;;;;;;8.70;4.63;;;;;;;5.84;86.83;100314.47;5044703;28;21061;-68
2023/12/18 03:02:33;;;;;;;8.77;4.53;;;;;;;5.75;86.49;100285.59;5042673;28;20348;-68
2023/12/18 03:04:58;;;;;;;8.13;4.70;;;;;;;5.93;87.20;100319.19;5047961;28;20463;-68
2023/12/18 03:07:23;;;;;;;7.35;4.15;;;;;;;5.86;86.70;100321.25;5046467;28;20031;-68
2023/12/18 03:09:51;;;;;;;6.82;4.13;;;;;;;5.79;85.86;100317.28;5043617;28;20059;-68
2023/12/18 03:12:16;;;;;;;8.52;4.38;;;;;;;5.78;85.79;100316.41;5031339;28;20063;-69
2023/12/18 03:14:44;;;;;;;7.13;3.95;;;;;;;5.79;86.40;100322.44;5027300;28;20116;-68
2023/12/18 03:17:09;;;;;;;8.00;4.25;;;;;;;5.56;85.70;100280.47;5028973;28;20276;-69
2023/12/18 03:19:37;;;;;;;7.95;4.20;;;;;;;5.70;86.18;100312.56;5043368;28;20036;-69
2023/12/18 03:22:03;;;;;;;6.72;4.10;;;;;;;5.64;86.46;100316.25;5029453;28;20031;-69
2023/12/18 03:24:28;;;;;;;7.03;3.95;;;;;;;5.45;86.69;100274.97;5047711;28;20339;-69
2023/12/18 03:26:55;;;;;;;7.47;4.20;;;;;;;5.67;87.21;100312.69;5038441;28;20112;-69
2023/12/18 03:29:21;;;;;;;8.18;3.97;;;;;;;5.67;87.78;100310.09;5035251;28;20033;-69
2023/12/18 03:31:49;;;;;;;6.95;4.10;;;;;;;5.66;87.49;100306.69;5027526;28;20032;-69
2023/12/18 03:34:16;;;;;;;7.20;3.88;;;;;;;5.71;87.51;100309.03;5033186;28;20038;-68
2023/12/18 03:36:44;;;;;;;7.65;4.10;;;;;;;5.73;87.31;100309.81;5036951;28;20066;-69
2023/12/18 03:39:12;;;;;;;7.32;3.78;;;;;;;5.74;87.73;100304.56;5028676;28;20037;-71
2023/12/18 03:41:42;;;;;;;6.82;4.05;;;;;;;5.72;86.96;100305.56;5067484;28;20021;-68
2023/12/18 03:44:07;;;;;;;7.30;3.85;;;;;;;5.76;86.51;100304.50;5031150;28;20025;-69
2023/12/18 03:46:33;;;;;;;7.47;3.97;;;;;;;5.45;86.55;100254.34;5032933;28;20086;-69
2023/12/18 03:48:58;;;;;;;6.97;3.58;;;;;;;5.72;86.43;100303.00;5051995;28;20759;-69
2023/12/18 03:51:24;;;;;;;7.88;4.20;;;;;;;5.47;86.54;100270.56;5047016;28;20032;-69
2023/12/18 03:53:49;;;;;;;6.25;3.17;;;;;;;5.66;85.57;100303.25;5046579;28;20040;-69
2023/12/18 03:56:17;;;;;;;7.68;3.92;;;;;;;5.67;86.31;100300.59;5033637;28;20025;-69
2023/12/18 03:58:43;;;;;;;7.80;4.22;;;;;;;5.58;87.99;100304.47;5027193;28;20029;-69
2023/12/18 04:01:08;;;;;;;7.03;3.75;;;;;;;5.59;88.68;100300.97;5048759;28;20036;-69
2023/12/18 04:03:34;;;;;;;7.35;4.07;;;;;;;5.67;89.09;100302.38;5051605;28;20550;-69
2023/12/18 04:06:04;;;;;;;7.80;4.10;;;;;;;5.56;88.29;100301.09;5045445;28;20532;-69
2023/12/18 04:08:29;;;;;;;7.30;4.22;;;;;;;5.32;88.06;100259.22;5047032;28;20039;-69
2023/12/18 04:10:55;;;;;;;6.97;4.22;;;;;;;5.55;87.71;100307.19;5048505;28;20036;-69
2023/12/18 04:13:21;;;;;;;7.15;4.05;;;;;;;5.45;87.45;100297.38;5045608;28;20104;-69
2023/12/18 04:15:46;;;;;;;7.63;4.30;;;;;;;5.03;88.50;100252.81;5033048;28;20055;-69
2023/12/18 04:18:11;;;;;;;7.20;4.40;;;;;;;4.98;88.72;100252.19;5045227;28;20029;-68
2023/12/18 04:20:37;;;;;;;7.60;3.95;;;;;;;5.13;89.41;100291.91;5033127;28;20048;-69
2023/12/18 04:23:02;;;;;;;8.07;3.97;;;;;;;5.17;91.30;100293.47;5048594;28;20427;-69
2023/12/18 04:25:27;;;;;;;8.27;3.83;;;;;;;5.01;91.70;100247.72;5034385;28;20155;-70
2023/12/18 04:27:53;;;;;;;7.57;4.22;;;;;;;5.27;92.42;100299.03;5042409;28;20032;-70
2023/12/18 04:30:21;;;;;;;7.10;3.58;;;;;;;5.35;91.67;100294.38;5035247;28;20808;-68
2023/12/18 04:32:46;;;;;;;8.02;3.60;;;;;;;5.43;91.23;100300.00;5044954;28;20033;-69
2023/12/18 04:35:14;;;;;;;6.85;3.58;;;;;;;5.37;89.98;100287.41;5050658;28;20040;-69
2023/12/18 04:37:42;;;;;;;8.40;3.92;;;;;;;5.51;89.66;100287.59;5034393;28;20101;-69
2023/12/18 04:40:08;;;;;;;8.00;3.80;;;;;;;5.53;89.41;100284.94;5053533;28;20060;-69
2023/12/18 04:42:39;;;;;;;7.10;3.30;;;;;;;5.58;88.58;100295.88;5047380;28;20036;-68
2023/12/18 04:45:07;;;;;;;5.60;3.33;;;;;;;5.33;88.85;100263.50;5048421;28;20036;-69
2023/12/18 04:47:32;;;;;;;6.25;3.25;;;;;;;5.53;88.08;100292.66;5032324;28;20108;-69
2023/12/18 04:49:58;;;;;;;6.15;3.08;;;;;;;5.49;87.06;100279.06;5032743;28;20043;-69
2023/12/18 04:52:31;;;;;;;6.13;3.28;;;;;;;5.38;87.66;100278.75;5044535;28;20423;-70
2023/12/18 04:54:56;;;;;;;6.47;3.03;;;;;;;5.41;88.06;100276.03;5029513;28;20402;-69
2023/12/18 04:57:21;;;;;;;7.35;3.25;;;;;;;5.48;89.07;100274.84;5050519;28;20031;-69
2023/12/18 04:59:47;;;;;;;6.53;3.20;;;;;;;5.43;88.91;100269.06;5029100;28;20028;-69
2023/12/18 05:02:14;;;;;;;6.13;3.20;;;;;;;5.50;89.09;100273.03;5049320;28;20387;-69
2023/12/18 05:04:40;;;;;;;5.85;2.85;;;;;;;5.54;88.32;100286.63;5025597;28;20060;-70
2023/12/18 05:07:07;;;;;;;9.07;3.20;;;;;;;5.62;87.59;100273.34;5050857;28;20085;-70
2023/12/18 05:09:33;;;;;;;6.55;3.03;;;;;;;5.68;88.00;100271.31;5029522;28;20056;-69
2023/12/18 05:12:00;;;;;;;5.90;2.90;;;;;;;5.73;87.38;100276.25;5050279;28;20035;-70
2023/12/18 05:14:28;;;;;;;6.00;3.03;;;;;;;5.64;88.17;100267.22;5045423;28;20531;-70
2023/12/18 05:16:54;;;;;;;5.20;2.67;;;;;;;5.65;87.80;100268.06;5030635;28;20376;-69
2023/12/18 05:19:19;;;;;;;5.97;2.90;;;;;;;5.65;87.58;100262.88;5033723;28;20059;-69
2023/12/18 05:21:47;;;;;;;7.43;2.90;;;;;;;5.81;87.41;100276.75;5041353;28;20122;-69
2023/12/18 05:24:12;;;;;;;6.78;2.88;;;;;;;5.77;86.92;100267.47;5044327;28;20031;-70
2023/12/18 05:26:37;;;;;;;6.97;2.67;;;;;;;5.85;87.86;100267.94;5040664;28;20028;-70
2023/12/18 05:29:03;;;;;;;5.78;2.50;;;;;;;5.73;88.50;100271.94;5041146;28;20089;-69
2023/12/18 05:31:28;;;;;;;6.30;2.65;;;;;;;5.67;89.07;100267.06;5041747;28;20036;-70
2023/12/18 05:33:53;;;;;;;5.53;2.45;;;;;;;5.54;89.03;100260.81;5050240;28;20050;-69
2023/12/18 05:36:19;;;;;;;5.10;2.45;;;;;;;5.47;89.16;100260.25;5027345;28;20438;-69
2023/12/18 05:38:44;;;;;;;6.40;2.72;;;;;;;5.63;89.12;100267.28;5041562;28;20421;-69
2023/12/18 05:41:10;;;;;;;6.40;2.85;;;;;;;5.65;89.70;100274.03;5041336;28;20041;-69
2023/12/18 05:43:35;;;;;;;6.18;2.80;;;;;;;5.57;90.27;100263.25;5027145;28;20118;-69
2023/12/18 05:46:03;;;;;;;6.32;2.75;;;;;;;5.46;90.74;100271.50;5049313;28;20029;-69
2023/12/18 05:48:28;;;;;;;6.15;2.90;;;;;;;5.27;90.07;100232.81;5037590;28;20055;-68
2023/12/18 05:50:54;;;;;;;5.88;2.53;;;;;;;5.38;88.93;100246.06;5034874;28;20829;-69
2023/12/18 05:53:21;;;;;;;5.50;2.70;;;;;;;5.22;89.40;100223.63;5026736;28;20119;-69
2023/12/18 05:55:50;;;;;;;5.15;2.42;;;;;;;5.50;88.65;100270.44;5039450;28;20614;-69
2023/12/18 05:58:15;;;;;;;5.75;2.70;;;;;;;5.57;88.64;100271.00;5041784;28;20032;-69
2023/12/18 06:00:40;;;;;;;6.43;2.60;;;;;;;5.61;87.93;100267.34;5033019;28;20021;-69
2023/12/18 06:03:06;;;;;;;6.00;2.88;;;;;;;5.57;88.46;100271.00;5029548;28;20040;-69
2023/12/18 06:05:33;;;;;;;6.03;2.63;;;;;;;5.50;88.46;100275.59;5024506;28;21016;-69
2023/12/18 06:08:02;;;;;;;5.78;2.70;;;;;;;5.53;89.44;100285.78;5041819;28;20057;-69
2023/12/18 06:10:28;;;;;;;5.15;2.40;;;;;;;5.52;89.88;100270.38;5043042;28;20083;-69
2023/12/18 06:12:55;;;;;;;5.25;2.60;;;;;;;5.44;88.48;100238.91;5046712;28;20127;-69
2023/12/18 06:15:23;;;;;;;5.80;2.47;;;;;;;5.70;89.43;100264.34;5029584;28;20056;-69
2023/12/18 06:17:49;;;;;;;5.13;2.28;;;;;;;5.73;89.55;100266.78;5027226;28;20098;-69
2023/12/18 06:20:14;;;;;;;5.43;2.60;;;;;;;5.61;88.67;100264.78;5044428;28;20961;-69
2023/12/18 06:22:42;;;;;;;5.88;2.33;;;;;;;5.26;88.71;100220.84;5034016;28;20052;-68
2023/12/18 06:25:10;;;;;;;5.32;2.50;;;;;;;5.56;88.54;100269.31;5021440;28;20043;-69
2023/12/18 06:27:39;;;;;;;5.80;2.40;;;;;;;5.68;88.67;100270.50;5042745;28;20571;-69
2023/12/18 06:30:05;;;;;;;5.45;2.38;;;;;;;5.68;89.18;100270.50;5023018;28;20038;-69
2023/12/18 06:32:30;;;;;;;5.90;2.28;;;;;;;5.70;89.00;100256.59;5036593;28;20122;-69
2023/12/18 06:34:57;;;;;;;5.72;2.38;;;;;;;5.66;88.28;100260.25;5023145;28;20047;-69
2023/12/18 06:37:24;;;;;;;5.10;2.33;;;;;;;5.58;88.75;100259.75;5047993;28;20032;-69
2023/12/18 06:39:49;;;;;;;5.30;2.20;;;;;;;5.71;88.29;100255.69;5041281;28;21159;-69
2023/12/18 06:42:19;;;;;;;5.85;2.35;;;;;;;5.69;88.15;100265.22;5030242;28;20036;-69
2023/12/18 06:44:47;;;;;;;5.38;2.28;;;;;;;5.64;88.42;100253.47;5025825;28;20035;-69
2023/12/18 06:47:15;;;;;;;5.13;2.50;;;;;;;5.56;87.49;100248.66;5042132;28;20033;-70
2023/12/18 06:49:40;;;;;;;5.43;2.30;;;;;;;5.68;87.47;100257.59;5051061;28;20036;-71
2023/12/18 06:52:08;;;;;;;5.22;2.40;;;;;;;5.58;87.44;100262.34;5033750;28;21370;-70
2023/12/18 06:54:34;;;;;;;5.50;2.40;;;;;;;5.63;87.95;100254.38;5046819;28;20040;-70
2023/12/18 06:57:01;;;;;;;5.55;2.13;;;;;;;5.56;89.66;100249.50;5025811;28;20148;-70
2023/12/18 06:59:26;;;;;;;5.30;2.15;;;;;;;5.65;90.36;100261.13;5049134;28;20094;-69
2023/12/18 07:01:52;;;;;;;5.00;2.10;;;;;;;5.62;91.01;100263.84;5028394;28;20021;-69
2023/12/18 07:04:19;;;;;;;5.90;2.28;;;;;;;5.59;90.96;100257.09;5045818;28;20044;-70
2023/12/18 07:06:45;;;;;;;6.72;2.10;;;;;;;5.42;90.51;100223.53;5049780;28;20021;-70
2023/12/18 07:09:10;;;;;;;4.93;2.10;;;;;;;5.42;89.14;100236.44;5047424;28;20122;-70
2023/12/18 07:11:35;;;;;;;5.15;2.20;;;;;;;5.67;88.85;100266.22;5047862;28;20021;-70
2023/12/18 07:14:01;;;;;;;5.40;2.17;;;;;;;5.69;90.05;100267.00;5043052;28;20097;-71
2023/12/18 07:16:28;;;;;;;4.90;2.00;;;;;;;5.66;89.91;100274.88;5050437;28;20731;-70
2023/12/18 07:18:55;;;;;;;5.07;2.00;;;;;;;5.59;89.22;100264.84;5045145;28;20475;-70
2023/12/18 07:21:23;;;;;;;5.70;2.05;;;;;;;5.66;89.31;100274.88;5051133;28;20842;-70
2023/12/18 07:23:48;;;;;;;5.57;2.03;;;;;;;5.47;87.75;100218.97;5049994;28;20056;-70
2023/12/18 07:26:16;;;;;;;4.65;1.98;;;;;;;5.88;88.15;100270.38;5033350;28;20047;-69
2023/12/18 07:28:42;;;;;;;4.30;1.63;;;;;;;5.68;87.17;100226.63;5034865;28;20495;-69
2023/12/18 07:31:08;;;;;;;4.85;1.85;;;;;;;5.96;88.13;100268.25;5033314;28;20448;-69
2023/12/18 07:33:36;;;;;;;4.80;1.90;;;;;;;6.02;89.28;100272.28;5037213;28;20063;-70
2023/12/18 07:36:05;;;;;;;5.00;1.70;;;;;;;5.86;88.85;100235.19;5048610;28;20660;-70
2023/12/18 07:38:30;;;;;;;4.82;1.92;;;;;;;5.96;88.05;100247.63;5048497;28;20384;-67
2023/12/18 07:40:57;;;;;;;4.90;1.65;;;;;;;6.04;87.80;100255.00;5045629;28;20048;-69
2023/12/18 07:43:22;;;;;;;5.50;1.65;;;;;;;6.03;88.10;100260.25;5049755;28;20025;-68
2023/12/18 07:45:48;;;;;;;4.78;1.65;;;;;;;6.16;86.58;100263.88;5044133;28;20042;-69
2023/12/18 07:48:15;;;;;;;5.15;1.92;;;;;;;5.80;88.42;100213.09;5046934;28;20109;-69
2023/12/18 07:50:41;;;;;;;5.28;2.10;;;;;;;6.15;87.98;100257.03;5032033;28;20369;-70
2023/12/18 07:53:06;;;;;;;6.90;1.90;;;;;;;6.13;87.73;100266.59;5033139;28;20094;-70
2023/12/18 07:55:32;;;;;;;4.90;1.98;;;;;;;5.90;86.55;100229.81;5046749;28;20132;-69
2023/12/18 07:57:59;;;;;;;5.30;1.70;;;;;;;5.99;86.73;100254.38;5047090;28;20090;-70
2023/12/18 08:00:25;;;;;;;8.27;2.50;;;;;;;6.00;84.79;100274.13;5054648;28;20032;-68
2023/12/18 08:02:51;;;;;;;4.57;1.80;;;;;;;5.80;83.43;100243.25;5051376;28;20040;-72
2023/12/18 08:05:19;;;;;;;6.53;1.98;;;;;;;6.03;82.97;100265.41;5051865;28;20471;-70
2023/12/18 08:07:44;;;;;;;4.32;1.80;;;;;;;5.91;84.49;100249.56;5040014;28;20063;-70
2023/12/18 08:10:12;;;;;;;4.30;1.73;;;;;;;6.07;84.54;100274.66;5048057;28;20739;-70
2023/12/18 08:12:38;;;;;;;5.50;1.90;;;;;;;5.78;85.87;100227.81;5045544;28;21097;-70
2023/12/18 08:15:05;;;;;;;4.80;1.85;;;;;;;5.99;85.26;100250.94;5047308;28;21287;-70
2023/12/18 08:17:40;;;;;;;7.55;2.10;;;;;;;6.21;84.38;100280.00;5046091;28;20112;-70
2023/12/18 08:20:09;;;;;;;5.55;2.35;;;;;;;6.13;84.28;100276.94;5029232;28;20037;-70
2023/12/18 08:22:36;;;;;;;6.55;2.80;;;;;;;6.09;85.22;100278.84;5052903;28;20025;-70
2023/12/18 08:25:04;;;;;;;6.78;2.40;;;;;;;6.06;86.59;100270.41;5043519;28;20665;-70
2023/12/18 08:27:33;;;;;;;5.75;2.50;;;;;;;5.99;86.75;100258.69;5052349;28;20109;-71
2023/12/18 08:30:01;;;;;;;4.97;2.17;;;;;;;6.10;87.95;100262.44;5046096;28;20024;-69
2023/12/18 08:32:26;;;;;;;5.93;2.13;;;;;;;6.12;87.61;100260.63;5048918;28;20266;-70
2023/12/18 08:34:52;;;;;;;5.05;2.40;;;;;;;5.84;89.77;100217.22;5030807;28;20032;-70
2023/12/18 08:37:17;;;;;;;6.07;2.53;;;;;;;6.15;90.51;100263.06;5040529;28;20736;-70
2023/12/18 08:39:45;;;;;;;7.72;3.03;;;;;;;6.03;89.47;100270.56;5047567;28;20520;-70
2023/12/18 08:42:10;;;;;;;7.25;2.83;;;;;;;6.10;89.67;100270.19;5036487;28;20029;-70
2023/12/18 08:44:35;;;;;;;5.50;2.50;;;;;;;5.84;89.24;100212.06;5047559;28;20650;-70
2023/12/18 08:47:02;;;;;;;6.63;2.60;;;;;;;6.16;89.86;100259.53;5045361;28;20128;-69
2023/12/18 08:49:30;;;;;;;6.25;2.45;;;;;;;6.00;89.92;100234.56;5041724;28;20066;-70
2023/12/18 08:51:55;;;;;;;6.63;2.63;;;;;;;6.15;89.38;100267.34;5030451;28;20032;-70
2023/12/18 08:54:20;;;;;;;5.68;2.40;;;;;;;5.92;88.18;100256.41;5042568;28;20052;-69
2023/12/18 08:56:51;;;;;;;5.00;2.15;;;;;;;6.10;88.55;100261.63;5041388;28;20036;-69
2023/12/18 08:59:17;;;;;;;5.75;2.45;;;;;;;5.75;90.53;100215.91;5040197;28;20616;-70
2023/12/18 09:01:43;;;;;;;7.38;2.60;;;;;;;6.14;89.87;100245.88;5050153;28;20047;-70
2023/12/18 09:04:08;;;;;;;6.18;2.60;;;;;;;6.15;89.35;100252.72;5025206;28;20029;-69
2023/12/18 09:06:37;;;;;;;5.15;2.40;;;;;;;6.17;89.04;100260.41;5035805;28;20028;-70
2023/12/18 09:09:07;;;;;;;5.35;2.20;;;;;;;6.21;88.89;100249.00;5042545;28;20488;-70
2023/12/18 09:11:33;;;;;;;6.60;2.58;;;;;;;6.27;88.66;100246.09;5033452;28;20032;-70
2023/12/18 09:14:00;;;;;;;4.90;2.30;;;;;;;6.23;88.90;100242.00;5042744;28;20020;-69
2023/12/18 09:16:26;;;;;;;4.85;2.13;;;;;;;6.24;88.93;100233.34;5032098;28;20035;-70
2023/12/18 09:18:51;;;;;;;4.80;2.25;;;;;;;6.26;87.37;100241.84;5028204;28;20033;-70
2023/12/18 09:21:17;;;;;;;5.68;2.00;;;;;;;6.39;84.43;100243.78;5043965;28;20021;-69
2023/12/18 09:23:47;;;;;;;6.03;2.33;;;;;;;6.49;82.49;100251.00;5037682;28;20602;-70
2023/12/18 09:26:13;;;;;;;6.97;2.72;;;;;;;6.41;82.85;100240.25;5027754;28;20455;-68
2023/12/18 09:28:39;;;;;;;8.43;4.32;;;;;;;6.50;80.41;100244.09;5033225;28;20032;-70
2023/12/18 09:31:07;;;;;;;6.70;3.45;;;;;;;6.56;80.28;100241.19;5041490;28;20896;-70
2023/12/18 09:33:33;;;;;;;8.20;3.47;;;;;;;6.60;79.88;100239.28;5041632;28;20090;-70
2023/12/18 09:36:02;;;;;;;8.93;4.60;;;;;;;6.31;79.92;100192.53;5045056;28;20024;-69
2023/12/18 09:38:27;;;;;;;6.10;3.07;;;;;;;6.52;81.20;100242.28;5046927;28;20742;-71
2023/12/18 09:40:53;;;;;;;6.15;2.70;;;;;;;6.57;82.23;100252.34;5037376;28;20028;-69
2023/12/18 09:43:20;;;;;;;6.18;2.63;;;;;;;6.19;83.00;100201.75;5031739;28;20121;-69
2023/12/18 09:45:47;;;;;;;6.75;3.08;;;;;;;6.31;83.35;100237.25;5058776;28;20032;-69
2023/12/18 09:48:18;;;;;;;6.68;2.92;;;;;;;6.13;82.20;100202.91;5028283;28;20098;-69
2023/12/18 09:50:44;;;;;;;8.80;3.30;;;;;;;6.28;82.96;100234.88;5039608;28;20028;-69
2023/12/18 09:53:13;;;;;;;6.90;2.83;;;;;;;6.14;84.06;100234.72;5026144;28;20098;-69
2023/12/18 09:55:42;;;;;;;8.80;3.20;;;;;;;6.13;84.09;100223.56;5026832;28;20577;-69
2023/12/18 09:58:08;;;;;;;6.82;2.97;;;;;;;6.21;84.08;100233.50;5022840;28;20196;-69
2023/12/18 10:00:36;;;;;;;8.63;3.92;;;;;;;6.28;83.65;100234.88;5025006;28;20032;-70
2023/12/18 10:03:04;;;;;;;5.80;2.13;;;;;;;6.50;78.21;100233.78;5028438;28;20020;-69
2023/12/18 10:05:29;;;;;;;6.07;2.40;;;;;;;6.85;77.10;100224.16;5043999;28;20108;-69
2023/12/18 10:07:59;;;;;;;7.82;2.20;;;;;;;7.07;76.46;100225.59;5044485;28;20108;-69
2023/12/18 10:10:24;;;;;;;5.95;2.20;;;;;;;6.77;76.83;100174.59;5022020;28;21627;-70
2023/12/18 10:12:50;;;;;;;7.15;2.58;;;;;;;7.28;76.76;100218.41;5044388;28;20678;-70
2023/12/18 10:15:18;;;;;;;7.35;2.65;;;;;;;7.27;76.41;100217.59;5047471;28;20039;-70
2023/12/18 10:17:48;;;;;;;7.68;2.92;;;;;;;7.04;76.27;100171.44;5024425;28;20387;-70
2023/12/18 10:20:15;;;;;;;;;;;;;;;7.23;76.88;100204.91;5041481;28;20773;-70
2023/12/18 10:22:41;;;;;;;7.38;2.53;;;;;;;7.20;76.91;100199.91;5040262;28;19920;-69
2023/12/18 10:25:09;;;;;;;5.53;2.15;;;;;;;7.22;77.34;100205.81;5043630;28;20583;-71
2023/12/18 10:27:38;;;;;;;6.05;2.47;;;;;;;7.19;77.62;100187.88;5024729;28;20116;-70
2023/12/18 10:30:10;;;;;;;5.30;2.47;;;;;;;7.26;77.10;100192.63;5029687;28;20725;-68
2023/12/18 10:32:37;;;;;;;5.65;2.53;;;;;;;7.42;75.79;100187.44;5042186;28;20102;-70
2023/12/18 10:35:05;;;;;;;4.80;2.10;;;;;;;7.46;75.22;100185.50;5040036;28;20114;-70
2023/12/18 10:37:35;;;;;;;5.63;2.10;;;;;;;7.45;74.07;100195.03;5044994;28;20041;-70
2023/12/18 10:40:07;;;;;;;6.95;3.03;;;;;;;7.49;75.78;100190.53;5028520;28;20298;-69
2023/12/18 10:42:36;;;;;;;7.43;3.15;;;;;;;7.64;75.06;100194.00;5035504;28;20025;-69
2023/12/18 10:45:08;;;;;;;8.90;3.25;;;;;;;7.60;75.19;100171.78;5044478;28;20028;-70
2023/12/18 10:47:34;;;;;;;5.20;2.00;;;;;;;7.70;73.56;100188.44;5045684;28;21059;-69
2023/12/18 10:50:01;;;;;;;7.03;2.20;;;;;;;7.58;74.65;100145.16;5022793;28;20520;-70
2023/12/18 10:52:31;;;;;;;6.13;2.55;;;;;;;7.64;73.63;100137.03;5026136;28;20184;-70
2023/12/18 10:55:07;;;;;;;7.93;2.50;;;;;;;7.81;72.48;100172.31;5046808;28;20139;-70
2023/12/18 10:57:37;;;;;;;7.20;2.22;;;;;;;7.87;71.20;100164.19;5044636;28;20032;-70
2023/12/18 11:00:04;;;;;;;7.00;2.88;;;;;;;7.97;70.38;100156.72;5044967;28;20040;-70
2023/12/18 11:02:35;;;;;;;5.53;2.03;;;;;;;8.12;67.65;100157.56;5049202;28;20426;-69
2023/12/18 11:05:03;;;;;;;5.25;1.90;;;;;;;8.19;68.06;100159.69;5026689;28;20110;-68
2023/12/18 11:07:29;;;;;;;7.20;3.25;;;;;;;7.99;67.74;100123.78;5048356;28;20060;-70
2023/12/18 11:09:54;;;;;;;7.43;2.33;;;;;;;8.02;67.27;100131.38;5044697;28;20670;-70
2023/12/18 11:12:20;;;;;;;6.15;1.92;;;;;;;8.20;68.45;100148.41;5026926;28;20044;-69
2023/12/18 11:14:58;;;;;;;4.60;2.05;;;;;;;8.37;68.39;100160.34;5038801;28;20517;-69
2023/12/18 11:17:36;;;;;;;5.63;2.05;;;;;;;8.23;68.34;100121.47;5045976;28;20099;-69
2023/12/18 11:20:08;;;;;;;4.68;1.90;;;;;;;8.25;68.94;100109.25;5042209;28;20196;-69
2023/12/18 11:22:47;;;;;;;5.53;2.17;;;;;;;8.21;67.34;100103.44;5044083;28;20112;-70
2023/12/18 11:25:13;;;;;;;5.95;1.88;;;;;;;8.57;66.59;100145.38;5038460;28;20025;-69
2023/12/18 11:27:40;;;;;;;5.43;1.80;;;;;;;8.37;67.84;100100.72;5036193;28;20495;-70
2023/12/18 11:30:30;;;;;;;7.70;2.13;;;;;;;8.70;68.28;100142.84;5040729;28;20099;-69
2023/12/18 11:32:56;;;;;;;5.55;2.50;;;;;;;8.69;68.29;100139.44;5045873;28;20052;-69